Time;durP1;ratioP1;P1;durP2;ratioP2;P2;SDS_P1;SDS_P2;PMS_P1;PMS_P2;Temp;Humidity;BMP_temperature;BMP_pressure;BME280_temperature;BME280_humidity;BME280_pressure;Samples;Min_cycle;Max_cycle;Signal;HPM_P1;HPM_P2
2020/12/15 00:01:23;;;;;;;10.87;8.87;;;;;;;;;;5096852;28;20487;-69
2020/12/15 00:03:50;;;;;;;14.53;7.90;;;;;;;;;;5095248;28;20424;-68
2020/12/15 00:06:17;;;;;;;17.47;8.20;;;;;;;;;;5096897;28;20418;-69
2020/12/15 00:08:44;;;;;;;13.20;8.50;;;;;;;;;;5096454;28;20419;-69
2020/12/15 00:11:10;;;;;;;12.60;8.50;;;;;;;;;;5096602;28;20434;-69
2020/12/15 00:13:36;;;;;;;12.87;8.23;;;;;;;;;;5095842;28;20483;-69
2020/12/15 00:16:02;;;;;;;15.23;8.30;;;;;;;;;;5096921;28;20481;-69
2020/12/15 00:18:28;;;;;;;13.07;8.10;;;;;;;;;;5095610;28;20412;-68
2020/12/15 00:20:54;;;;;;;16.20;7.37;;;;;;;;;;5096303;28;20436;-69
2020/12/15 00:23:20;;;;;;;14.57;8.63;;;;;;;;;;5095752;28;20432;-69
2020/12/15 00:25:47;;;;;;;12.87;9.47;;;;;;;;;;5076040;28;20397;-69
2020/12/15 00:28:13;;;;;;;12.83;9.03;;;;;;;;;;5080897;28;20420;-69
2020/12/15 00:30:39;;;;;;;13.97;8.80;;;;;;;;;;5096409;28;20420;-69
2020/12/15 00:33:05;;;;;;;13.73;9.13;;;;;;;;;;5094307;28;21012;-69
2020/12/15 00:35:31;;;;;;;15.80;9.20;;;;;;;;;;5095838;28;20499;-69
2020/12/15 00:37:57;;;;;;;16.97;9.27;;;;;;;;;;5093441;28;20604;-69
2020/12/15 00:40:23;;;;;;;16.10;10.50;;;;;;;;;;5095848;28;20395;-69
2020/12/15 00:42:49;;;;;;;20.07;12.00;;;;;;;;;;5095967;28;20404;-69
2020/12/15 00:45:15;;;;;;;23.30;10.37;;;;;;;;;;5096076;28;20388;-69
2020/12/15 00:47:41;;;;;;;20.67;10.73;;;;;;;;;;5095141;28;20504;-70
2020/12/15 00:50:07;;;;;;;15.20;9.87;;;;;;;;;;5095854;28;20418;-69
2020/12/15 00:52:33;;;;;;;20.07;11.30;;;;;;;;;;5095918;28;20456;-69
2020/12/15 00:54:59;;;;;;;18.10;10.07;;;;;;;;;;5095544;28;20420;-69
2020/12/15 00:57:25;;;;;;;16.13;10.53;;;;;;;;;;5095673;28;20403;-69
2020/12/15 00:59:53;;;;;;;19.30;9.80;;;;;;;;;;5094743;28;20514;-69
2020/12/15 01:02:20;;;;;;;21.80;11.13;;;;;;;;;;5095889;28;20986;-69
2020/12/15 01:04:46;;;;;;;20.00;11.10;;;;;;;;;;5094899;28;20428;-69
2020/12/15 01:07:12;;;;;;;19.80;10.67;;;;;;;;;;5095428;28;20411;-69
2020/12/15 01:09:38;;;;;;;16.87;10.07;;;;;;;;;;5093369;28;20447;-69
2020/12/15 01:12:10;;;;;;;16.27;10.00;;;;;;;;;;5095208;28;20452;-69
2020/12/15 01:14:37;;;;;;;16.83;9.97;;;;;;;;;;5094151;28;20432;-69
2020/12/15 01:17:03;;;;;;;19.10;10.03;;;;;;;;;;5095248;28;20400;-69
2020/12/15 01:19:29;;;;;;;15.70;10.07;;;;;;;;;;5095074;28;20503;-69
2020/12/15 01:21:55;;;;;;;16.07;9.07;;;;;;;;;;5095604;28;20831;-69
2020/12/15 01:24:21;;;;;;;20.80;10.37;;;;;;;;;;5094119;28;20480;-69
2020/12/15 01:26:47;;;;;;;20.17;9.90;;;;;;;;;;5095342;28;20419;-69
2020/12/15 01:29:13;;;;;;;19.30;10.77;;;;;;;;;;5093747;28;20432;-69
2020/12/15 01:31:39;;;;;;;13.97;9.77;;;;;;;;;;5095088;28;20424;-69
2020/12/15 01:34:05;;;;;;;15.90;9.40;;;;;;;;;;5093771;28;20547;-69
2020/12/15 01:36:32;;;;;;;15.60;8.33;;;;;;;;;;5095084;28;20820;-69
2020/12/15 01:38:58;;;;;;;16.67;10.20;;;;;;;;;;5092754;28;20454;-69
2020/12/15 01:41:24;;;;;;;15.30;9.13;;;;;;;;;;5076534;28;20479;-69
2020/12/15 01:43:57;;;;;;;14.57;8.90;;;;;;;;;;5093914;28;20623;-67
2020/12/15 01:46:24;;;;;;;14.03;9.50;;;;;;;;;;5080209;28;20424;-68
2020/12/15 01:48:50;;;;;;;14.60;9.20;;;;;;;;;;5093201;28;20397;-68
2020/12/15 01:51:16;;;;;;;15.53;9.40;;;;;;;;;;5094850;28;20428;-68
2020/12/15 01:53:44;;;;;;;16.37;8.90;;;;;;;;;;5091766;28;20812;-68
2020/12/15 01:56:10;;;;;;;16.43;10.40;;;;;;;;;;5094407;28;20973;-69
2020/12/15 01:58:37;;;;;;;22.27;11.20;;;;;;;;;;5093663;28;20452;-67
2020/12/15 02:01:03;;;;;;;14.97;9.30;;;;;;;;;;5093906;28;20441;-69
2020/12/15 02:03:29;;;;;;;14.77;10.50;;;;;;;;;;5094609;28;20757;-69
2020/12/15 02:05:55;;;;;;;16.50;8.10;;;;;;;;;;5094210;28;20427;-69
2020/12/15 02:08:21;;;;;;;17.03;9.60;;;;;;;;;;5092354;28;20428;-68
2020/12/15 02:10:47;;;;;;;16.23;8.33;;;;;;;;;;5091384;28;20455;-68
2020/12/15 02:13:13;;;;;;;15.30;10.20;;;;;;;;;;5094159;28;20447;-69
2020/12/15 02:15:40;;;;;;;15.73;9.93;;;;;;;;;;5092639;28;20428;-69
2020/12/15 02:18:06;;;;;;;16.73;8.70;;;;;;;;;;5094517;28;20392;-69
2020/12/15 02:20:32;;;;;;;19.60;10.33;;;;;;;;;;5093140;28;20536;-69
2020/12/15 02:22:58;;;;;;;15.00;8.43;;;;;;;;;;5093425;28;20401;-69
2020/12/15 02:25:24;;;;;;;17.83;9.30;;;;;;;;;;5093312;28;20458;-69
2020/12/15 02:27:50;;;;;;;15.40;8.57;;;;;;;;;;5094093;28;20392;-68
2020/12/15 02:30:16;;;;;;;18.50;10.33;;;;;;;;;;5092957;28;20509;-68
2020/12/15 02:32:42;;;;;;;15.93;10.20;;;;;;;;;;5093956;28;20451;-68
2020/12/15 02:35:08;;;;;;;15.33;10.03;;;;;;;;;;5092562;28;20470;-69
2020/12/15 02:37:34;;;;;;;16.50;8.97;;;;;;;;;;5093935;28;20397;-69
2020/12/15 02:40:01;;;;;;;15.53;7.90;;;;;;;;;;5092722;28;20427;-68
2020/12/15 02:42:31;;;;;;;13.80;8.30;;;;;;;;;;5092682;28;20424;-67
2020/12/15 02:44:57;;;;;;;13.87;8.17;;;;;;;;;;5092905;28;20424;-68
2020/12/15 02:47:23;;;;;;;13.10;8.43;;;;;;;;;;5094017;28;20400;-68
2020/12/15 02:49:49;;;;;;;13.47;9.37;;;;;;;;;;5092659;28;20524;-67
2020/12/15 02:52:15;;;;;;;14.07;9.50;;;;;;;;;;5093507;28;20444;-69
2020/12/15 02:54:42;;;;;;;16.03;9.40;;;;;;;;;;5092841;28;20908;-67
2020/12/15 02:57:08;;;;;;;15.17;9.50;;;;;;;;;;5093613;28;20405;-69
2020/12/15 02:59:34;;;;;;;17.30;7.63;;;;;;;;;;5091534;28;20397;-67
2020/12/15 03:02:00;;;;;;;13.40;6.87;;;;;;;;;;5089496;28;20440;-68
2020/12/15 03:04:26;;;;;;;12.23;7.77;;;;;;;;;;5073270;28;20488;-69
2020/12/15 03:06:52;;;;;;;8.73;6.90;;;;;;;;;;5092062;28;20428;-68
2020/12/15 03:09:18;;;;;;;14.30;7.23;;;;;;;;;;5093518;28;20756;-69
2020/12/15 03:11:44;;;;;;;10.20;6.57;;;;;;;;;;5092251;28;20444;-69
2020/12/15 03:14:10;;;;;;;10.80;8.07;;;;;;;;;;5093232;28;20451;-68
2020/12/15 03:16:36;;;;;;;12.37;8.20;;;;;;;;;;5091107;28;20420;-69
2020/12/15 03:19:03;;;;;;;11.47;8.30;;;;;;;;;;5093246;28;20397;-68
2020/12/15 03:21:30;;;;;;;10.37;7.97;;;;;;;;;;5091304;28;20466;-69
2020/12/15 03:23:57;;;;;;;12.33;8.47;;;;;;;;;;5093152;28;20811;-68
2020/12/15 03:26:23;;;;;;;12.70;8.17;;;;;;;;;;5092375;28;20780;-68
2020/12/15 03:28:49;;;;;;;11.23;7.67;;;;;;;;;;5093460;28;20412;-68
2020/12/15 03:31:15;;;;;;;13.73;7.53;;;;;;;;;;5092094;28;20448;-68
2020/12/15 03:33:42;;;;;;;16.90;8.87;;;;;;;;;;5093003;28;20493;-69
2020/12/15 03:36:08;;;;;;;11.63;7.87;;;;;;;;;;5092306;28;20420;-69
2020/12/15 03:38:34;;;;;;;9.50;7.53;;;;;;;;;;5092901;28;20742;-68
2020/12/15 03:41:00;;;;;;;10.13;6.80;;;;;;;;;;5091809;28;20452;-68
2020/12/15 03:43:26;;;;;;;10.03;7.30;;;;;;;;;;5093221;28;20404;-68
2020/12/15 03:45:52;;;;;;;12.27;8.20;;;;;;;;;;5090678;28;20427;-68
2020/12/15 03:48:18;;;;;;;11.90;7.20;;;;;;;;;;5092724;28;20416;-68
2020/12/15 03:50:44;;;;;;;10.23;7.50;;;;;;;;;;5090134;28;20478;-68
2020/12/15 03:53:10;;;;;;;11.57;7.20;;;;;;;;;;5093204;28;20543;-69
2020/12/15 03:55:36;;;;;;;12.87;7.63;;;;;;;;;;5092022;28;20420;-69
2020/12/15 03:58:02;;;;;;;9.23;6.67;;;;;;;;;;5091025;28;20436;-69
2020/12/15 04:00:28;;;;;;;10.47;7.03;;;;;;;;;;5092289;28;20435;-69
2020/12/15 04:02:54;;;;;;;9.50;6.60;;;;;;;;;;5093171;28;20401;-69
2020/12/15 04:05:20;;;;;;;10.23;6.87;;;;;;;;;;5091687;28;20939;-69
2020/12/15 04:07:46;;;;;;;10.47;6.80;;;;;;;;;;5093084;28;20453;-69
2020/12/15 04:10:12;;;;;;;13.30;6.80;;;;;;;;;;5091672;28;20424;-70
2020/12/15 04:12:38;;;;;;;11.77;6.80;;;;;;;;;;5096403;28;20789;-69
2020/12/15 04:15:05;;;;;;;12.13;6.60;;;;;;;;;;5095537;28;20899;-69
2020/12/15 04:17:36;;;;;;;11.20;6.50;;;;;;;;;;5096502;28;20880;-69
2020/12/15 04:20:02;;;;;;;10.67;6.90;;;;;;;;;;5096301;28;20412;-69
2020/12/15 04:22:28;;;;;;;7.50;6.10;;;;;;;;;;5095358;28;20443;-69
2020/12/15 04:24:54;;;;;;;10.63;7.33;;;;;;;;;;5096415;28;20759;-69
2020/12/15 04:27:20;;;;;;;7.80;5.97;;;;;;;;;;5095657;28;20420;-69
2020/12/15 04:29:46;;;;;;;8.40;5.97;;;;;;;;;;5096244;28;20483;-69
2020/12/15 04:32:12;;;;;;;9.57;7.13;;;;;;;;;;5094087;28;20436;-69
2020/12/15 04:34:38;;;;;;;9.90;7.50;;;;;;;;;;5096202;28;20939;-69
2020/12/15 04:37:04;;;;;;;8.53;5.87;;;;;;;;;;5094816;28;20432;-69
2020/12/15 04:39:30;;;;;;;8.90;6.33;;;;;;;;;;5095960;28;20412;-69
2020/12/15 04:41:56;;;;;;;9.67;6.00;;;;;;;;;;5094939;28;20786;-69
2020/12/15 04:44:23;;;;;;;8.80;5.23;;;;;;;;;;5096200;28;20417;-69
2020/12/15 04:47:06;;;;;;;10.13;5.63;;;;;;;;;;5095004;28;20424;-69
2020/12/15 04:49:37;;;;;;;8.33;5.27;;;;;;;;;;5096193;28;20403;-69
2020/12/15 04:52:05;;;;;;;9.07;5.23;;;;;;;;;;5095091;28;20440;-69
2020/12/15 04:54:35;;;;;;;13.47;7.00;;;;;;;;;;5095985;28;20792;-69
2020/12/15 04:57:02;;;;;;;10.90;5.97;;;;;;;;;;5095654;28;20772;-69
2020/12/15 04:59:32;;;;;;;6.67;5.03;;;;;;;;;;5095988;28;20427;-69
2020/12/15 05:01:59;;;;;;;7.43;5.50;;;;;;;;;;5089266;28;20475;-69
2020/12/15 05:04:28;;;;;;;6.90;5.10;;;;;;;;;;5095672;28;20407;-69
2020/12/15 05:06:54;;;;;;;9.03;4.57;;;;;;;;;;5093701;28;20503;-69
2020/12/15 05:09:29;;;;;;;7.23;4.87;;;;;;;;;;5095836;28;20757;-69
2020/12/15 05:11:55;;;;;;;7.83;5.20;;;;;;;;;;5076144;28;20970;-69
2020/12/15 05:14:22;;;;;;;8.20;5.33;;;;;;;;;;5095307;28;20509;-69
2020/12/15 05:16:48;;;;;;;11.60;6.27;;;;;;;;;;5094388;28;20826;-69
2020/12/15 05:19:14;;;;;;;15.60;7.90;;;;;;;;;;5095291;28;20401;-69
2020/12/15 05:21:39;;;;;;;8.20;5.80;;;;;;;;;;5093513;28;20456;-69
2020/12/15 05:24:09;;;;;;;5.93;5.07;;;;;;;;;;5094158;28;20900;-69
2020/12/15 05:26:35;;;;;;;5.93;5.07;;;;;;;;;;5094266;28;20428;-69
2020/12/15 05:29:01;;;;;;;7.10;4.60;;;;;;;;;;5095365;28;20492;-69
2020/12/15 05:31:28;;;;;;;9.10;5.20;;;;;;;;;;5094166;28;20452;-68
2020/12/15 05:33:54;;;;;;;6.03;5.43;;;;;;;;;;5094997;28;20455;-69
2020/12/15 05:36:21;;;;;;;7.73;4.70;;;;;;;;;;5092543;28;20424;-68
2020/12/15 05:39:00;;;;;;;5.00;4.37;;;;;;;;;;5094366;28;20449;-68
2020/12/15 05:41:26;;;;;;;5.53;3.80;;;;;;;;;;5093865;28;20869;-68
2020/12/15 05:43:52;;;;;;;8.53;5.17;;;;;;;;;;5095096;28;20904;-69
2020/12/15 05:46:20;;;;;;;8.30;5.60;;;;;;;;;;5093914;28;20400;-68
2020/12/15 05:48:46;;;;;;;8.00;5.30;;;;;;;;;;5094920;28;20420;-68
2020/12/15 05:51:12;;;;;;;9.57;5.10;;;;;;;;;;5093655;28;20460;-68
2020/12/15 05:53:38;;;;;;;9.87;5.23;;;;;;;;;;5094812;28;20486;-69
2020/12/15 05:56:05;;;;;;;7.00;4.43;;;;;;;;;;5095070;28;20849;-69
2020/12/15 05:58:31;;;;;;;7.27;5.40;;;;;;;;;;5093703;28;20428;-69
2020/12/15 06:00:57;;;;;;;6.67;5.27;;;;;;;;;;5094247;28;21069;-68
2020/12/15 06:03:23;;;;;;;9.63;4.93;;;;;;;;;;5093778;28;20480;-69
2020/12/15 06:05:52;;;;;;;7.50;5.10;;;;;;;;;;5094631;28;20773;-69
2020/12/15 06:08:18;;;;;;;7.83;4.63;;;;;;;;;;5094405;28;20908;-69
2020/12/15 06:10:47;;;;;;;6.13;5.00;;;;;;;;;;5094182;28;20437;-69
2020/12/15 06:13:13;;;;;;;4.97;4.17;;;;;;;;;;5093215;28;20529;-69
2020/12/15 06:15:39;;;;;;;9.00;4.20;;;;;;;;;;5094421;28;20407;-69
2020/12/15 06:18:05;;;;;;;10.63;5.10;;;;;;;;;;5093766;28;20420;-69
2020/12/15 06:20:35;;;;;;;6.37;5.17;;;;;;;;;;5093896;28;20428;-69
2020/12/15 06:23:01;;;;;;;7.00;5.40;;;;;;;;;;5093384;28;20777;-69
2020/12/15 06:25:34;;;;;;;10.37;5.77;;;;;;;;;;5094406;28;20397;-69
2020/12/15 06:28:06;;;;;;;5.63;5.00;;;;;;;;;;5093626;28;20965;-69
2020/12/15 06:30:34;;;;;;;8.47;5.43;;;;;;;;;;5093976;28;20447;-69
2020/12/15 06:33:00;;;;;;;5.30;4.30;;;;;;;;;;5093006;28;20451;-69
2020/12/15 06:35:27;;;;;;;8.83;5.87;;;;;;;;;;5093857;28;20545;-69
2020/12/15 06:37:53;;;;;;;6.80;5.27;;;;;;;;;;5092040;28;20549;-69
2020/12/15 06:40:19;;;;;;;6.77;5.10;;;;;;;;;;5094183;28;20844;-69
2020/12/15 06:42:53;;;;;;;7.23;4.53;;;;;;;;;;5093143;28;20857;-69
2020/12/15 06:45:23;;;;;;;7.20;4.87;;;;;;;;;;5092849;28;20428;-69
2020/12/15 06:47:56;;;;;;;7.63;5.67;;;;;;;;;;5091876;28;20431;-69
2020/12/15 06:50:23;;;;;;;5.27;4.53;;;;;;;;;;5093560;28;20412;-69
2020/12/15 06:52:49;;;;;;;7.33;5.53;;;;;;;;;;5092859;28;20483;-69
2020/12/15 06:55:15;;;;;;;7.33;5.20;;;;;;;;;;5093789;28;20405;-69
2020/12/15 06:57:41;;;;;;;6.33;5.00;;;;;;;;;;5092521;28;20423;-69
2020/12/15 07:00:08;;;;;;;6.70;5.57;;;;;;;;;;5093272;28;20418;-69
2020/12/15 07:02:34;;;;;;;7.50;5.50;;;;;;;;;;5092219;28;20944;-69
2020/12/15 07:05:20;;;;;;;8.77;5.23;;;;;;;;;;5093641;28;20754;-69
2020/12/15 07:07:46;;;;;;;10.43;6.13;;;;;;;;;;5093035;28;20419;-69
2020/12/15 07:10:13;;;;;;;7.40;5.20;;;;;;;;;;5093152;28;20915;-69
2020/12/15 07:12:40;;;;;;;10.70;7.07;;;;;;;;;;5092204;28;20502;-69
2020/12/15 07:15:06;;;;;;;6.40;5.47;;;;;;;;;;5093360;28;20961;-69
2020/12/15 07:17:33;;;;;;;6.70;5.10;;;;;;;;;;5092882;28;20451;-69
2020/12/15 07:20:01;;;;;;;9.37;5.00;;;;;;;;;;5093487;28;20801;-69
2020/12/15 07:22:26;;;;;;;9.53;6.30;;;;;;;;;;5091870;28;20456;-69
2020/12/15 07:24:52;;;;;;;8.93;5.90;;;;;;;;;;5093264;28;20392;-69
2020/12/15 07:27:19;;;;;;;8.80;5.97;;;;;;;;;;5092029;28;20427;-70
2020/12/15 07:29:55;;;;;;;7.23;5.77;;;;;;;;;;5093084;28;20409;-69
2020/12/15 07:32:21;;;;;;;8.90;5.03;;;;;;;;;;5092069;28;20423;-69
2020/12/15 07:34:47;;;;;;;8.17;5.60;;;;;;;;;;5092971;28;20408;-69
2020/12/15 07:37:20;;;;;;;7.53;6.00;;;;;;;;;;5092905;28;20392;-71
2020/12/15 07:39:47;;;;;;;8.23;4.93;;;;;;;;;;5092851;28;20487;-69
2020/12/15 07:42:13;;;;;;;8.10;5.83;;;;;;;;;;5092820;28;20443;-69
2020/12/15 07:44:39;;;;;;;6.17;5.57;;;;;;;;;;5091417;28;20434;-70
2020/12/15 07:47:05;;;;;;;8.50;5.90;;;;;;;;;;5091272;28;20420;-70
2020/12/15 07:49:31;;;;;;;10.97;6.00;;;;;;;;;;5088591;28;20431;-70
2020/12/15 07:51:57;;;;;;;9.30;5.00;;;;;;;;;;5096712;28;20516;-68
2020/12/15 07:54:23;;;;;;;6.00;4.97;;;;;;;;;;5091392;28;20534;-70
2020/12/15 07:56:49;;;;;;;7.47;5.17;;;;;;;;;;5096228;28;20904;-68
2020/12/15 07:59:15;;;;;;;9.23;5.90;;;;;;;;;;5094543;28;20416;-67
2020/12/15 08:01:42;;;;;;;10.33;5.83;;;;;;;;;;5095691;28;20440;-70
2020/12/15 08:04:12;;;;;;;8.07;5.07;;;;;;;;;;5077443;28;20928;-67
2020/12/15 08:06:42;;;;;;;14.30;6.67;;;;;;;;;;5096639;28;20411;-68
2020/12/15 08:09:09;;;;;;;9.90;5.83;;;;;;;;;;5093901;28;20511;-68
2020/12/15 08:11:36;;;;;;;8.67;6.87;;;;;;;;;;5093313;28;20497;-68
2020/12/15 08:14:02;;;;;;;9.63;5.20;;;;;;;;;;5096420;28;20491;-68
2020/12/15 08:16:28;;;;;;;7.90;5.23;;;;;;;;;;5095384;28;20427;-68
2020/12/15 08:19:01;;;;;;;10.40;5.20;;;;;;;;;;5096400;28;20392;-69
2020/12/15 08:21:48;;;;;;;8.47;6.50;;;;;;;;;;5093556;28;20464;-68
2020/12/15 08:24:15;;;;;;;9.83;6.33;;;;;;;;;;5095536;28;20412;-68
2020/12/15 08:26:42;;;;;;;9.17;5.33;;;;;;;;;;5077396;28;20431;-68
2020/12/15 08:29:10;;;;;;;7.93;6.00;;;;;;;;;;5091754;28;20424;-69
2020/12/15 08:31:40;;;;;;;10.30;6.70;;;;;;;;;;5094732;28;20868;-68
2020/12/15 08:34:19;;;;;;;12.20;6.50;;;;;;;;;;5091627;28;20448;-72
2020/12/15 08:36:48;;;;;;;12.53;7.03;;;;;;;;;;5092444;28;20777;-71
2020/12/15 08:39:14;;;;;;;10.87;7.67;;;;;;;;;;5094130;28;20417;-70
2020/12/15 08:41:47;;;;;;;9.77;5.63;;;;;;;;;;5095118;28;21296;-73
2020/12/15 08:44:13;;;;;;;7.07;5.40;;;;;;;;;;5095947;28;20420;-73
2020/12/15 08:46:40;;;;;;;10.57;7.93;;;;;;;;;;5095094;28;20522;-73
2020/12/15 08:49:10;;;;;;;9.40;7.33;;;;;;;;;;5095982;28;20776;-71
2020/12/15 08:51:40;;;;;;;12.40;7.60;;;;;;;;;;5094593;28;20475;-74
2020/12/15 08:54:06;;;;;;;10.40;7.10;;;;;;;;;;5095138;28;20458;-73
2020/12/15 08:56:34;;;;;;;9.03;6.80;;;;;;;;;;5094002;28;20416;-73
2020/12/15 08:59:08;;;;;;;9.53;7.10;;;;;;;;;;5093846;28;20444;-72
2020/12/15 09:01:34;;;;;;;11.17;7.10;;;;;;;;;;5094016;28;20447;-72
2020/12/15 09:04:00;;;;;;;7.87;6.03;;;;;;;;;;5095158;28;20423;-76
2020/12/15 09:06:33;;;;;;;8.43;6.47;;;;;;;;;;5094431;28;20419;-76
2020/12/15 09:09:00;;;;;;;10.33;6.70;;;;;;;;;;5095234;28;20932;-76
2020/12/15 09:11:26;;;;;;;8.00;6.50;;;;;;;;;;5094945;28;20439;-74
2020/12/15 09:13:56;;;;;;;11.40;7.13;;;;;;;;;;5095089;28;20471;-73
2020/12/15 09:16:26;;;;;;;10.63;7.20;;;;;;;;;;5095030;28;20422;-77
2020/12/15 09:18:52;;;;;;;10.43;6.80;;;;;;;;;;5095222;28;20491;-74
2020/12/15 09:21:18;;;;;;;11.93;6.43;;;;;;;;;;5094443;28;20462;-78
2020/12/15 09:23:48;;;;;;;11.57;7.27;;;;;;;;;;5097133;28;20913;-78
2020/12/15 09:26:14;;;;;;;11.40;7.50;;;;;;;;;;5095984;28;20495;-78
2020/12/15 09:28:40;;;;;;;12.50;7.50;;;;;;;;;;5096482;28;20404;-78
2020/12/15 09:31:06;;;;;;;14.53;7.10;;;;;;;;;;5096260;28;20858;-77
2020/12/15 09:33:32;;;;;;;13.03;8.60;;;;;;;;;;5094622;28;20463;-77
2020/12/15 09:35:58;;;;;;;12.90;7.20;;;;;;;;;;5093870;28;20451;-76
2020/12/15 09:38:24;;;;;;;20.27;7.77;;;;;;;;;;5094101;28;20416;-77
2020/12/15 09:40:50;;;;;;;12.55;7.90;;;;;;;;;;5094082;28;20436;-69
2020/12/15 09:43:16;;;;;;;13.60;8.30;;;;;;;;;;5093924;28;20264;-73
2020/12/15 09:45:42;;;;;;;12.23;7.97;;;;;;;;;;5094072;28;20415;-76
2020/12/15 09:48:08;;;;;;;10.67;6.77;;;;;;;;;;5092593;28;20441;-76
2020/12/15 09:50:34;;;;;;;11.20;7.30;;;;;;;;;;5093354;28;20505;-77
2020/12/15 09:53:01;;;;;;;12.13;6.30;;;;;;;;;;5093680;28;20874;-77
2020/12/15 09:55:27;;;;;;;15.77;8.77;;;;;;;;;;5093661;28;20849;-75
2020/12/15 09:57:53;;;;;;;11.07;7.03;;;;;;;;;;5093286;28;20459;-76
2020/12/15 10:00:20;;;;;;;9.00;6.50;;;;;;;;;;5092721;28;20866;-77
2020/12/15 10:02:46;;;;;;;12.13;7.30;;;;;;;;;;5091126;28;20452;-74
2020/12/15 10:05:12;;;;;;;12.13;7.07;;;;;;;;;;5094287;28;20404;-76
2020/12/15 10:07:39;;;;;;;11.07;7.40;;;;;;;;;;5092876;28;20420;-78
2020/12/15 10:10:05;;;;;;;7.87;6.33;;;;;;;;;;5088775;28;20478;-75
2020/12/15 10:12:31;;;;;;;10.53;7.77;;;;;;;;;;5092637;28;20436;-74
2020/12/15 10:14:57;;;;;;;9.83;7.17;;;;;;;;;;5094778;28;20408;-77
2020/12/15 10:17:23;;;;;;;8.53;6.60;;;;;;;;;;5075215;28;20424;-77
2020/12/15 10:19:49;;;;;;;14.20;7.47;;;;;;;;;;5094024;28;20416;-77
2020/12/15 10:22:15;;;;;;;13.50;7.57;;;;;;;;;;5089466;28;20463;-76
2020/12/15 10:24:43;;;;;;;12.20;8.27;;;;;;;;;;5092410;28;20443;-73
2020/12/15 10:27:09;;;;;;;12.00;7.60;;;;;;;;;;5092157;28;20464;-75
2020/12/15 10:29:35;;;;;;;11.97;7.30;;;;;;;;;;5092078;28;20457;-71
2020/12/15 10:32:01;;;;;;;11.87;7.70;;;;;;;;;;5090901;28;20454;-72
2020/12/15 10:34:27;;;;;;;15.93;8.37;;;;;;;;;;5086229;28;20456;-72
2020/12/15 10:36:54;;;;;;;11.60;7.60;;;;;;;;;;5089634;28;20821;-70
2020/12/15 10:39:20;;;;;;;12.30;8.03;;;;;;;;;;5091636;28;20781;-72
2020/12/15 10:41:46;;;;;;;12.87;7.60;;;;;;;;;;5092061;28;20452;-73
2020/12/15 10:44:15;;;;;;;22.53;7.57;;;;;;;;;;5092083;28;20424;-73
2020/12/15 10:46:44;;;;;;;15.57;6.87;;;;;;;;;;5091029;28;20636;-73
2020/12/15 10:49:10;;;;;;;10.93;7.50;;;;;;;;;;5089797;28;20427;-72
2020/12/15 10:51:40;;;;;;;12.03;7.80;;;;;;;;;;5091031;28;20507;-72
2020/12/15 10:54:06;;;;;;;13.40;7.83;;;;;;;;;;5087137;28;20942;-73
2020/12/15 10:56:32;;;;;;;16.53;8.67;;;;;;;;;;5092022;28;20424;-73
2020/12/15 10:58:58;;;;;;;11.67;8.30;;;;;;;;;;5092830;28;20404;-73
2020/12/15 11:01:24;;;;;;;21.83;8.87;;;;;;;;;;5092668;28;20485;-73
2020/12/15 11:03:50;;;;;;;11.50;7.67;;;;;;;;;;5091569;28;20479;-73
2020/12/15 11:06:17;;;;;;;8.70;6.47;;;;;;;;;;5091369;28;20412;-73
2020/12/15 11:08:43;;;;;;;12.13;7.90;;;;;;;;;;5073281;28;20428;-72
2020/12/15 11:11:12;;;;;;;10.83;8.00;;;;;;;;;;5091132;28;20530;-72
2020/12/15 11:13:39;;;;;;;13.50;9.33;;;;;;;;;;5091399;28;20463;-73
2020/12/15 11:16:09;;;;;;;11.73;8.97;;;;;;;;;;5091197;28;20428;-73
2020/12/15 11:18:35;;;;;;;12.97;8.30;;;;;;;;;;5074696;28;20424;-73
2020/12/15 11:21:01;;;;;;;21.53;10.73;;;;;;;;;;5092078;28;21079;-73
2020/12/15 11:23:27;;;;;;;16.70;10.40;;;;;;;;;;5092169;28;20493;-73
2020/12/15 11:25:53;;;;;;;15.60;9.20;;;;;;;;;;5092868;28;20754;-73
2020/12/15 11:28:19;;;;;;;11.40;7.40;;;;;;;;;;5091401;28;20589;-73
2020/12/15 11:30:46;;;;;;;11.03;8.13;;;;;;;;;;5094244;28;20463;-74
2020/12/15 11:33:12;;;;;;;13.93;8.63;;;;;;;;;;5092496;28;21185;-73
2020/12/15 11:35:38;;;;;;;11.40;7.30;;;;;;;;;;5074449;28;20412;-73
2020/12/15 11:38:04;;;;;;;11.10;8.47;;;;;;;;;;5091488;28;20416;-73
2020/12/15 11:40:31;;;;;;;13.80;8.87;;;;;;;;;;5092809;28;20809;-72
2020/12/15 11:42:58;;;;;;;10.80;8.70;;;;;;;;;;5091905;28;20520;-74
2020/12/15 11:45:24;;;;;;;14.10;8.60;;;;;;;;;;5092471;28;20420;-72
2020/12/15 11:47:51;;;;;;;16.10;10.03;;;;;;;;;;5091623;28;20416;-72
2020/12/15 11:50:18;;;;;;;12.67;8.73;;;;;;;;;;5091391;28;20424;-73
2020/12/15 11:52:44;;;;;;;31.50;9.63;;;;;;;;;;5090498;28;20428;-72
2020/12/15 11:55:10;;;;;;;11.07;8.00;;;;;;;;;;5088613;28;20413;-72
2020/12/15 11:57:36;;;;;;;14.87;8.93;;;;;;;;;;5090113;28;20907;-73
2020/12/15 12:00:04;;;;;;;15.13;10.37;;;;;;;;;;5092078;28;20447;-72
2020/12/15 12:02:31;;;;;;;15.63;9.30;;;;;;;;;;5090913;28;20435;-73
2020/12/15 12:04:57;;;;;;;11.90;7.90;;;;;;;;;;5087817;28;20482;-73
2020/12/15 12:07:23;;;;;;;15.77;8.90;;;;;;;;;;5092427;28;20462;-73
2020/12/15 12:09:49;;;;;;;11.33;8.40;;;;;;;;;;5096480;28;20911;-72
2020/12/15 12:12:15;;;;;;;11.40;8.83;;;;;;;;;;5088970;28;20459;-72
2020/12/15 12:14:41;;;;;;;13.93;8.13;;;;;;;;;;5092312;28;20960;-72
2020/12/15 12:17:07;;;;;;;18.07;8.40;;;;;;;;;;5096321;28;20420;-72
2020/12/15 12:19:33;;;;;;;17.40;10.30;;;;;;;;;;5091162;28;20420;-73
2020/12/15 12:21:59;;;;;;;15.83;10.87;;;;;;;;;;5092970;28;20951;-72
2020/12/15 12:24:25;;;;;;;13.40;9.33;;;;;;;;;;5090198;28;20459;-73
2020/12/15 12:26:51;;;;;;;14.83;9.87;;;;;;;;;;5089399;28;21034;-72
2020/12/15 12:29:20;;;;;;;12.00;9.30;;;;;;;;;;5088779;28;20420;-72
2020/12/15 12:31:49;;;;;;;18.07;11.23;;;;;;;;;;5090648;28;20932;-72
2020/12/15 12:34:15;;;;;;;17.03;10.10;;;;;;;;;;5094419;28;20525;-72
2020/12/15 12:36:41;;;;;;;18.83;9.50;;;;;;;;;;5095523;28;20477;-72
2020/12/15 12:39:07;;;;;;;16.63;10.10;;;;;;;;;;5094977;28;20511;-72
2020/12/15 12:41:33;;;;;;;18.63;10.13;;;;;;;;;;5096083;28;20416;-72
2020/12/15 12:43:59;;;;;;;20.37;10.80;;;;;;;;;;5094174;28;20564;-73
2020/12/15 12:46:25;;;;;;;13.90;10.07;;;;;;;;;;5095682;28;20420;-73
2020/12/15 12:48:51;;;;;;;14.30;8.80;;;;;;;;;;5094593;28;20920;-72
2020/12/15 12:51:17;;;;;;;13.90;9.23;;;;;;;;;;5089814;28;20459;-72
2020/12/15 12:53:46;;;;;;;15.67;9.77;;;;;;;;;;5094631;28;20459;-72
2020/12/15 12:56:13;;;;;;;13.63;9.77;;;;;;;;;;5095386;28;20411;-72
2020/12/15 12:58:39;;;;;;;14.20;9.30;;;;;;;;;;5095490;28;20420;-72
2020/12/15 13:01:06;;;;;;;21.40;9.70;;;;;;;;;;5094768;28;20448;-72
2020/12/15 13:03:32;;;;;;;12.27;8.67;;;;;;;;;;5092768;28;20920;-72
2020/12/15 13:05:58;;;;;;;13.17;9.40;;;;;;;;;;5094775;28;20493;-72
2020/12/15 13:08:24;;;;;;;15.20;9.07;;;;;;;;;;5094166;28;20808;-72
2020/12/15 13:10:50;;;;;;;11.87;9.23;;;;;;;;;;5092394;28;20460;-73
2020/12/15 13:13:16;;;;;;;11.87;9.50;;;;;;;;;;5075531;28;20471;-72
2020/12/15 13:15:45;;;;;;;18.10;9.33;;;;;;;;;;5072751;28;20432;-72
2020/12/15 13:18:11;;;;;;;15.17;9.07;;;;;;;;;;5093465;28;20428;-72
2020/12/15 13:20:38;;;;;;;13.40;9.30;;;;;;;;;;5090661;28;20448;-72
2020/12/15 13:23:04;;;;;;;11.30;7.87;;;;;;;;;;5091977;28;20526;-71
2020/12/15 13:25:30;;;;;;;15.03;11.20;;;;;;;;;;5091848;28;20935;-71
2020/12/15 13:27:56;;;;;;;13.33;9.10;;;;;;;;;;5096621;28;20519;-72
2020/12/15 13:30:22;;;;;;;16.87;10.47;;;;;;;;;;5093712;28;20554;-72
2020/12/15 13:32:48;;;;;;;12.47;9.87;;;;;;;;;;5093414;28;20437;-71
2020/12/15 13:35:14;;;;;;;14.70;10.03;;;;;;;;;;5094113;28;20423;-72
2020/12/15 13:37:40;;;;;;;19.27;10.80;;;;;;;;;;5094486;28;20493;-72
2020/12/15 13:40:06;;;;;;;17.90;10.20;;;;;;;;;;5093626;28;20438;-72
2020/12/15 13:42:32;;;;;;;19.43;10.00;;;;;;;;;;5093609;28;20440;-71
2020/12/15 13:44:59;;;;;;;16.50;9.17;;;;;;;;;;5093892;28;20400;-72
2020/12/15 13:47:25;;;;;;;19.13;10.40;;;;;;;;;;5093391;28;20428;-72
2020/12/15 13:49:51;;;;;;;16.10;9.43;;;;;;;;;;5093089;28;20507;-72
2020/12/15 13:52:22;;;;;;;16.07;11.60;;;;;;;;;;5093437;28;21137;-72
2020/12/15 13:54:48;;;;;;;22.00;10.77;;;;;;;;;;5095744;28;20455;-72
2020/12/15 13:57:15;;;;;;;19.80;11.67;;;;;;;;;;5093587;28;20451;-72
2020/12/15 13:59:41;;;;;;;18.53;11.37;;;;;;;;;;5093812;28;20435;-72
2020/12/15 14:02:07;;;;;;;19.07;11.00;;;;;;;;;;5093229;28;20444;-72
2020/12/15 14:04:34;;;;;;;15.90;11.27;;;;;;;;;;5073812;28;20408;-71
2020/12/15 14:07:00;;;;;;;16.67;11.00;;;;;;;;;;5093840;28;20525;-72
2020/12/15 14:09:26;;;;;;;17.67;10.67;;;;;;;;;;5094229;28;20435;-72
2020/12/15 14:11:52;;;;;;;19.10;11.67;;;;;;;;;;5092805;28;20454;-72
2020/12/15 14:14:18;;;;;;;19.97;11.03;;;;;;;;;;5093996;28;20981;-72
2020/12/15 14:16:44;;;;;;;19.17;11.20;;;;;;;;;;5090880;28;20424;-72
2020/12/15 14:19:11;;;;;;;17.30;11.60;;;;;;;;;;5093601;28;20473;-72
2020/12/15 14:21:47;;;;;;;19.70;10.80;;;;;;;;;;5093925;28;20919;-72
2020/12/15 14:24:16;;;;;;;15.83;11.83;;;;;;;;;;5093743;28;20582;-72
2020/12/15 14:26:42;;;;;;;18.87;10.67;;;;;;;;;;5093849;28;20432;-72
2020/12/15 14:29:08;;;;;;;22.73;11.93;;;;;;;;;;5091702;28;20968;-72